sensor_id;sensor_type;location;lat;lon;timestamp;P1;durP1;ratioP1;P2;durP2;ratioP2
37955;SDS011;23776;51.592;7.180;2022-08-03T00:00:39;8.07;;;3.38;;
37955;SDS011;23776;51.592;7.180;2022-08-03T00:03:05;7.22;;;3.90;;
37955;SDS011;23776;51.592;7.180;2022-08-03T00:05:31;5.80;;;3.10;;
37955;SDS011;23776;51.592;7.180;2022-08-03T00:07:59;8.35;;;3.13;;
37955;SDS011;23776;51.592;7.180;2022-08-03T00:10:25;11.55;;;4.47;;
37955;SDS011;23776;51.592;7.180;2022-08-03T00:12:51;6.95;;;3.60;;
37955;SDS011;23776;51.592;7.180;2022-08-03T00:15:18;9.27;;;3.63;;
37955;SDS011;23776;51.592;7.180;2022-08-03T00:17:43;8.23;;;3.53;;
37955;SDS011;23776;51.592;7.180;2022-08-03T00:20:10;9.30;;;3.83;;
37955;SDS011;23776;51.592;7.180;2022-08-03T00:22:36;11.75;;;3.90;;
37955;SDS011;23776;51.592;7.180;2022-08-03T00:25:02;11.55;;;3.90;;
37955;SDS011;23776;51.592;7.180;2022-08-03T00:27:28;9.15;;;4.20;;
37955;SDS011;23776;51.592;7.180;2022-08-03T00:29:53;10.90;;;4.95;;
37955;SDS011;23776;51.592;7.180;2022-08-03T00:32:19;8.15;;;3.97;;
37955;SDS011;23776;51.592;7.180;2022-08-03T00:34:45;9.55;;;3.65;;
37955;SDS011;23776;51.592;7.180;2022-08-03T00:37:10;9.82;;;4.30;;
37955;SDS011;23776;51.592;7.180;2022-08-03T00:39:36;5.85;;;3.47;;
37955;SDS011;23776;51.592;7.180;2022-08-03T00:42:02;6.70;;;3.85;;
37955;SDS011;23776;51.592;7.180;2022-08-03T00:44:28;7.22;;;4.00;;
37955;SDS011;23776;51.592;7.180;2022-08-03T00:46:54;8.55;;;3.85;;
37955;SDS011;23776;51.592;7.180;2022-08-03T00:49:20;7.38;;;3.47;;
37955;SDS011;23776;51.592;7.180;2022-08-03T00:51:45;10.43;;;4.30;;
37955;SDS011;23776;51.592;7.180;2022-08-03T00:54:11;9.32;;;3.97;;
37955;SDS011;23776;51.592;7.180;2022-08-03T00:56:38;8.98;;;4.30;;
37955;SDS011;23776;51.592;7.180;2022-08-03T00:59:06;9.88;;;3.88;;
37955;SDS011;23776;51.592;7.180;2022-08-03T01:01:33;9.02;;;3.72;;
37955;SDS011;23776;51.592;7.180;2022-08-03T01:03:59;8.00;;;4.22;;
37955;SDS011;23776;51.592;7.180;2022-08-03T01:06:28;9.18;;;3.97;;
37955;SDS011;23776;51.592;7.180;2022-08-03T01:09:22;7.65;;;4.50;;
37955;SDS011;23776;51.592;7.180;2022-08-03T01:11:59;8.18;;;3.78;;
37955;SDS011;23776;51.592;7.180;2022-08-03T01:17:35;7.93;;;3.70;;
37955;SDS011;23776;51.592;7.180;2022-08-03T01:20:08;7.90;;;3.70;;
37955;SDS011;23776;51.592;7.180;2022-08-03T01:26:41;9.02;;;4.75;;
37955;SDS011;23776;51.592;7.180;2022-08-03T01:31:39;8.35;;;4.65;;
37955;SDS011;23776;51.592;7.180;2022-08-03T01:34:09;11.32;;;4.38;;
37955;SDS011;23776;51.592;7.180;2022-08-03T01:36:41;13.00;;;4.65;;
37955;SDS011;23776;51.592;7.180;2022-08-03T01:39:12;10.07;;;4.50;;
37955;SDS011;23776;51.592;7.180;2022-08-03T01:41:45;12.50;;;4.97;;
37955;SDS011;23776;51.592;7.180;2022-08-03T01:44:14;8.18;;;3.97;;
37955;SDS011;23776;51.592;7.180;2022-08-03T01:46:41;8.63;;;4.05;;
37955;SDS011;23776;51.592;7.180;2022-08-03T01:49:08;8.35;;;4.53;;
37955;SDS011;23776;51.592;7.180;2022-08-03T01:51:37;7.30;;;4.18;;
37955;SDS011;23776;51.592;7.180;2022-08-03T01:54:05;8.07;;;3.80;;
37955;SDS011;23776;51.592;7.180;2022-08-03T01:56:34;10.75;;;4.65;;
37955;SDS011;23776;51.592;7.180;2022-08-03T01:59:02;7.50;;;3.97;;
37955;SDS011;23776;51.592;7.180;2022-08-03T02:01:31;8.07;;;4.05;;
37955;SDS011;23776;51.592;7.180;2022-08-03T02:03:57;8.15;;;4.10;;
37955;SDS011;23776;51.592;7.180;2022-08-03T02:06:24;6.88;;;3.75;;
37955;SDS011;23776;51.592;7.180;2022-08-03T02:08:51;9.27;;;3.65;;
37955;SDS011;23776;51.592;7.180;2022-08-03T02:11:19;9.60;;;3.78;;
37955;SDS011;23776;51.592;7.180;2022-08-03T02:13:44;9.27;;;4.53;;
37955;SDS011;23776;51.592;7.180;2022-08-03T02:16:11;7.40;;;4.18;;
37955;SDS011;23776;51.592;7.180;2022-08-03T02:18:39;7.80;;;4.75;;
37955;SDS011;23776;51.592;7.180;2022-08-03T02:21:06;7.90;;;4.28;;
37955;SDS011;23776;51.592;7.180;2022-08-03T02:23:34;6.70;;;4.15;;
37955;SDS011;23776;51.592;7.180;2022-08-03T02:26:02;6.80;;;3.78;;
37955;SDS011;23776;51.592;7.180;2022-08-03T02:28:31;10.95;;;4.50;;
37955;SDS011;23776;51.592;7.180;2022-08-03T02:31:00;8.77;;;4.38;;
37955;SDS011;23776;51.592;7.180;2022-08-03T02:33:31;10.18;;;4.35;;
37955;SDS011;23776;51.592;7.180;2022-08-03T02:36:05;7.88;;;4.25;;
37955;SDS011;23776;51.592;7.180;2022-08-03T02:38:33;9.50;;;4.28;;
37955;SDS011;23776;51.592;7.180;2022-08-03T02:41:00;8.20;;;3.88;;
37955;SDS011;23776;51.592;7.180;2022-08-03T02:43:31;8.40;;;4.18;;
37955;SDS011;23776;51.592;7.180;2022-08-03T02:45:59;7.72;;;4.03;;
37955;SDS011;23776;51.592;7.180;2022-08-03T02:48:26;12.68;;;4.47;;
37955;SDS011;23776;51.592;7.180;2022-08-03T02:50:56;9.25;;;4.63;;
37955;SDS011;23776;51.592;7.180;2022-08-03T02:53:24;9.15;;;3.70;;
37955;SDS011;23776;51.592;7.180;2022-08-03T02:55:51;8.35;;;4.32;;
37955;SDS011;23776;51.592;7.180;2022-08-03T02:58:19;7.82;;;3.95;;
37955;SDS011;23776;51.592;7.180;2022-08-03T03:00:48;9.02;;;4.18;;
37955;SDS011;23776;51.592;7.180;2022-08-03T03:03:17;9.60;;;4.38;;
37955;SDS011;23776;51.592;7.180;2022-08-03T03:05:46;5.93;;;4.05;;
37955;SDS011;23776;51.592;7.180;2022-08-03T03:08:14;8.45;;;4.35;;
37955;SDS011;23776;51.592;7.180;2022-08-03T03:10:42;7.63;;;4.10;;
37955;SDS011;23776;51.592;7.180;2022-08-03T03:13:08;8.88;;;4.35;;
37955;SDS011;23776;51.592;7.180;2022-08-03T03:15:34;9.52;;;4.43;;
37955;SDS011;23776;51.592;7.180;2022-08-03T03:18:03;9.10;;;4.20;;
37955;SDS011;23776;51.592;7.180;2022-08-03T03:20:31;7.18;;;4.40;;
37955;SDS011;23776;51.592;7.180;2022-08-03T03:23:00;13.35;;;4.15;;
37955;SDS011;23776;51.592;7.180;2022-08-03T03:25:29;6.93;;;3.80;;
37955;SDS011;23776;51.592;7.180;2022-08-03T03:27:57;8.35;;;3.85;;
37955;SDS011;23776;51.592;7.180;2022-08-03T03:30:24;5.85;;;3.78;;
37955;SDS011;23776;51.592;7.180;2022-08-03T03:32:50;9.20;;;4.07;;
37955;SDS011;23776;51.592;7.180;2022-08-03T03:35:16;8.50;;;4.40;;
37955;SDS011;23776;51.592;7.180;2022-08-03T03:37:42;10.63;;;4.45;;
37955;SDS011;23776;51.592;7.180;2022-08-03T03:40:08;10.43;;;4.05;;
37955;SDS011;23776;51.592;7.180;2022-08-03T03:42:35;7.10;;;3.90;;
37955;SDS011;23776;51.592;7.180;2022-08-03T03:45:05;5.82;;;3.60;;
37955;SDS011;23776;51.592;7.180;2022-08-03T03:47:32;10.23;;;4.47;;
37955;SDS011;23776;51.592;7.180;2022-08-03T03:49:59;9.55;;;4.22;;
37955;SDS011;23776;51.592;7.180;2022-08-03T03:52:26;7.45;;;3.85;;
37955;SDS011;23776;51.592;7.180;2022-08-03T03:54:51;8.70;;;4.05;;
37955;SDS011;23776;51.592;7.180;2022-08-03T03:57:17;8.70;;;3.97;;
37955;SDS011;23776;51.592;7.180;2022-08-03T03:59:43;12.85;;;4.30;;
37955;SDS011;23776;51.592;7.180;2022-08-03T04:02:09;9.90;;;3.95;;
37955;SDS011;23776;51.592;7.180;2022-08-03T04:04:36;7.03;;;3.60;;
37955;SDS011;23776;51.592;7.180;2022-08-03T04:07:26;9.15;;;4.28;;
37955;SDS011;23776;51.592;7.180;2022-08-03T04:10:16;9.77;;;4.28;;
37955;SDS011;23776;51.592;7.180;2022-08-03T04:13:05;8.55;;;4.05;;
37955;SDS011;23776;51.592;7.180;2022-08-03T04:15:34;7.93;;;4.40;;
37955;SDS011;23776;51.592;7.180;2022-08-03T04:18:03;17.27;;;4.15;;
37955;SDS011;23776;51.592;7.180;2022-08-03T04:20:32;10.77;;;3.95;;
37955;SDS011;23776;51.592;7.180;2022-08-03T04:23:01;8.52;;;4.25;;
37955;SDS011;23776;51.592;7.180;2022-08-03T04:25:33;7.90;;;3.83;;
37955;SDS011;23776;51.592;7.180;2022-08-03T04:28:01;6.22;;;3.42;;
37955;SDS011;23776;51.592;7.180;2022-08-03T04:30:28;12.60;;;4.50;;
37955;SDS011;23776;51.592;7.180;2022-08-03T04:32:55;8.07;;;4.20;;
37955;SDS011;23776;51.592;7.180;2022-08-03T04:35:25;6.38;;;3.88;;
37955;SDS011;23776;51.592;7.180;2022-08-03T04:37:55;10.50;;;5.20;;
37955;SDS011;23776;51.592;7.180;2022-08-03T04:40:34;10.43;;;4.57;;
37955;SDS011;23776;51.592;7.180;2022-08-03T04:43:02;9.43;;;4.60;;
37955;SDS011;23776;51.592;7.180;2022-08-03T04:45:29;11.55;;;4.43;;
37955;SDS011;23776;51.592;7.180;2022-08-03T04:47:56;9.85;;;4.40;;
37955;SDS011;23776;51.592;7.180;2022-08-03T04:50:24;9.40;;;3.90;;
37955;SDS011;23776;51.592;7.180;2022-08-03T04:52:51;10.50;;;4.53;;
37955;SDS011;23776;51.592;7.180;2022-08-03T04:55:25;7.50;;;4.35;;
37955;SDS011;23776;51.592;7.180;2022-08-03T04:57:55;10.43;;;4.30;;
37955;SDS011;23776;51.592;7.180;2022-08-03T05:00:21;6.90;;;4.10;;
37955;SDS011;23776;51.592;7.180;2022-08-03T05:02:47;10.63;;;4.47;;
37955;SDS011;23776;51.592;7.180;2022-08-03T05:05:13;7.57;;;4.32;;
37955;SDS011;23776;51.592;7.180;2022-08-03T05:07:40;9.30;;;4.10;;
37955;SDS011;23776;51.592;7.180;2022-08-03T05:10:06;12.18;;;4.38;;
37955;SDS011;23776;51.592;7.180;2022-08-03T05:12:33;12.32;;;5.22;;
37955;SDS011;23776;51.592;7.180;2022-08-03T05:14:59;11.20;;;4.55;;
37955;SDS011;23776;51.592;7.180;2022-08-03T05:17:25;10.88;;;4.22;;
37955;SDS011;23776;51.592;7.180;2022-08-03T05:19:52;10.20;;;4.88;;
37955;SDS011;23776;51.592;7.180;2022-08-03T05:22:18;6.95;;;4.05;;
37955;SDS011;23776;51.592;7.180;2022-08-03T05:24:43;11.20;;;4.25;;
37955;SDS011;23776;51.592;7.180;2022-08-03T05:27:09;8.32;;;4.00;;
37955;SDS011;23776;51.592;7.180;2022-08-03T05:29:41;7.45;;;3.95;;
37955;SDS011;23776;51.592;7.180;2022-08-03T05:32:07;8.68;;;3.53;;
37955;SDS011;23776;51.592;7.180;2022-08-03T05:34:32;10.05;;;4.70;;
37955;SDS011;23776;51.592;7.180;2022-08-03T05:36:58;9.07;;;4.10;;
37955;SDS011;23776;51.592;7.180;2022-08-03T05:39:23;8.63;;;4.00;;
37955;SDS011;23776;51.592;7.180;2022-08-03T05:41:49;8.20;;;3.67;;
37955;SDS011;23776;51.592;7.180;2022-08-03T05:44:14;5.72;;;3.40;;
37955;SDS011;23776;51.592;7.180;2022-08-03T05:46:40;4.30;;;3.10;;
37955;SDS011;23776;51.592;7.180;2022-08-03T05:49:06;6.03;;;3.80;;
37955;SDS011;23776;51.592;7.180;2022-08-03T05:51:31;6.35;;;3.92;;
37955;SDS011;23776;51.592;7.180;2022-08-03T05:53:57;10.43;;;4.40;;
37955;SDS011;23776;51.592;7.180;2022-08-03T05:56:22;8.50;;;3.80;;
37955;SDS011;23776;51.592;7.180;2022-08-03T05:58:51;10.20;;;4.18;;
37955;SDS011;23776;51.592;7.180;2022-08-03T06:01:17;10.98;;;3.50;;
37955;SDS011;23776;51.592;7.180;2022-08-03T06:03:47;6.13;;;3.10;;
37955;SDS011;23776;51.592;7.180;2022-08-03T06:06:14;6.97;;;4.07;;
37955;SDS011;23776;51.592;7.180;2022-08-03T06:08:40;12.20;;;3.65;;
37955;SDS011;23776;51.592;7.180;2022-08-03T06:11:07;10.90;;;3.78;;
37955;SDS011;23776;51.592;7.180;2022-08-03T06:13:33;10.10;;;4.05;;
37955;SDS011;23776;51.592;7.180;2022-08-03T06:15:59;12.57;;;3.58;;
37955;SDS011;23776;51.592;7.180;2022-08-03T06:18:25;5.00;;;3.40;;
37955;SDS011;23776;51.592;7.180;2022-08-03T06:20:51;8.98;;;3.35;;
37955;SDS011;23776;51.592;7.180;2022-08-03T06:23:18;11.70;;;3.70;;
37955;SDS011;23776;51.592;7.180;2022-08-03T06:25:44;4.85;;;3.28;;
37955;SDS011;23776;51.592;7.180;2022-08-03T06:28:10;6.22;;;3.35;;
37955;SDS011;23776;51.592;7.180;2022-08-03T06:30:37;8.43;;;3.92;;
37955;SDS011;23776;51.592;7.180;2022-08-03T06:33:03;11.80;;;3.63;;
37955;SDS011;23776;51.592;7.180;2022-08-03T06:35:29;15.65;;;3.78;;
37955;SDS011;23776;51.592;7.180;2022-08-03T06:37:54;7.75;;;3.45;;
37955;SDS011;23776;51.592;7.180;2022-08-03T06:40:21;5.85;;;3.25;;
37955;SDS011;23776;51.592;7.180;2022-08-03T06:42:59;13.77;;;4.10;;
37955;SDS011;23776;51.592;7.180;2022-08-03T06:45:26;8.18;;;3.70;;
37955;SDS011;23776;51.592;7.180;2022-08-03T06:48:06;10.57;;;3.97;;
37955;SDS011;23776;51.592;7.180;2022-08-03T06:50:33;13.65;;;5.05;;
37955;SDS011;23776;51.592;7.180;2022-08-03T06:53:00;11.60;;;3.40;;
37955;SDS011;23776;51.592;7.180;2022-08-03T06:55:26;12.05;;;3.42;;
37955;SDS011;23776;51.592;7.180;2022-08-03T06:57:52;8.95;;;3.55;;
37955;SDS011;23776;51.592;7.180;2022-08-03T07:00:18;6.90;;;3.17;;
37955;SDS011;23776;51.592;7.180;2022-08-03T07:02:45;16.08;;;5.40;;
37955;SDS011;23776;51.592;7.180;2022-08-03T07:05:11;10.00;;;3.47;;
37955;SDS011;23776;51.592;7.180;2022-08-03T07:07:37;8.80;;;3.92;;
37955;SDS011;23776;51.592;7.180;2022-08-03T07:10:03;10.95;;;3.35;;
37955;SDS011;23776;51.592;7.180;2022-08-03T07:12:30;11.43;;;4.10;;
37955;SDS011;23776;51.592;7.180;2022-08-03T07:14:58;7.97;;;3.60;;
37955;SDS011;23776;51.592;7.180;2022-08-03T07:17:24;8.07;;;3.47;;
37955;SDS011;23776;51.592;7.180;2022-08-03T07:19:50;5.60;;;3.30;;
37955;SDS011;23776;51.592;7.180;2022-08-03T07:22:15;9.32;;;3.65;;
37955;SDS011;23776;51.592;7.180;2022-08-03T07:24:41;10.15;;;3.65;;
37955;SDS011;23776;51.592;7.180;2022-08-03T07:27:07;10.35;;;3.45;;
37955;SDS011;23776;51.592;7.180;2022-08-03T07:29:34;9.80;;;3.30;;
37955;SDS011;23776;51.592;7.180;2022-08-03T07:31:59;7.38;;;3.10;;
37955;SDS011;23776;51.592;7.180;2022-08-03T07:34:26;6.20;;;3.10;;
37955;SDS011;23776;51.592;7.180;2022-08-03T07:36:51;9.45;;;3.50;;
37955;SDS011;23776;51.592;7.180;2022-08-03T07:39:17;6.68;;;2.65;;
37955;SDS011;23776;51.592;7.180;2022-08-03T07:41:43;10.15;;;3.00;;
37955;SDS011;23776;51.592;7.180;2022-08-03T07:44:09;6.18;;;2.58;;
37955;SDS011;23776;51.592;7.180;2022-08-03T07:46:34;7.22;;;2.47;;
37955;SDS011;23776;51.592;7.180;2022-08-03T07:49:00;7.65;;;3.30;;
37955;SDS011;23776;51.592;7.180;2022-08-03T07:51:26;11.27;;;2.67;;
37955;SDS011;23776;51.592;7.180;2022-08-03T07:53:52;10.60;;;2.67;;
37955;SDS011;23776;51.592;7.180;2022-08-03T07:56:17;4.90;;;2.72;;
37955;SDS011;23776;51.592;7.180;2022-08-03T07:58:43;6.20;;;2.20;;
37955;SDS011;23776;51.592;7.180;2022-08-03T08:01:09;6.05;;;2.47;;
37955;SDS011;23776;51.592;7.180;2022-08-03T08:03:36;6.65;;;1.95;;
37955;SDS011;23776;51.592;7.180;2022-08-03T08:06:01;5.78;;;2.38;;
37955;SDS011;23776;51.592;7.180;2022-08-03T08:08:27;4.03;;;1.98;;
37955;SDS011;23776;51.592;7.180;2022-08-03T08:10:53;10.77;;;3.15;;
37955;SDS011;23776;51.592;7.180;2022-08-03T08:13:18;5.95;;;2.33;;
37955;SDS011;23776;51.592;7.180;2022-08-03T08:15:44;4.90;;;2.33;;
37955;SDS011;23776;51.592;7.180;2022-08-03T08:18:09;4.53;;;2.55;;
37955;SDS011;23776;51.592;7.180;2022-08-03T08:20:35;7.97;;;2.15;;
37955;SDS011;23776;51.592;7.180;2022-08-03T08:23:04;6.20;;;1.90;;
37955;SDS011;23776;51.592;7.180;2022-08-03T08:25:31;3.33;;;1.90;;
37955;SDS011;23776;51.592;7.180;2022-08-03T08:27:57;5.03;;;2.20;;
37955;SDS011;23776;51.592;7.180;2022-08-03T08:30:28;4.75;;;1.88;;
37955;SDS011;23776;51.592;7.180;2022-08-03T08:32:55;6.13;;;2.53;;
37955;SDS011;23776;51.592;7.180;2022-08-03T08:35:22;3.83;;;2.58;;
37955;SDS011;23776;51.592;7.180;2022-08-03T08:37:48;6.60;;;2.50;;
37955;SDS011;23776;51.592;7.180;2022-08-03T08:40:14;5.97;;;2.28;;
37955;SDS011;23776;51.592;7.180;2022-08-03T08:42:40;2.30;;;2.03;;
37955;SDS011;23776;51.592;7.180;2022-08-03T08:45:08;5.43;;;2.15;;
37955;SDS011;23776;51.592;7.180;2022-08-03T08:47:36;6.05;;;2.05;;
37955;SDS011;23776;51.592;7.180;2022-08-03T08:50:04;9.75;;;1.95;;
37955;SDS011;23776;51.592;7.180;2022-08-03T08:52:32;4.35;;;2.00;;
37955;SDS011;23776;51.592;7.180;2022-08-03T08:55:01;4.07;;;1.77;;
37955;SDS011;23776;51.592;7.180;2022-08-03T08:57:30;5.00;;;1.92;;
37955;SDS011;23776;51.592;7.180;2022-08-03T08:59:58;3.88;;;1.92;;
37955;SDS011;23776;51.592;7.180;2022-08-03T09:02:28;4.78;;;2.05;;
37955;SDS011;23776;51.592;7.180;2022-08-03T09:04:54;5.88;;;1.92;;
37955;SDS011;23776;51.592;7.180;2022-08-03T09:07:20;4.05;;;2.08;;
37955;SDS011;23776;51.592;7.180;2022-08-03T09:09:46;4.82;;;2.10;;
37955;SDS011;23776;51.592;7.180;2022-08-03T09:12:12;5.47;;;2.00;;
37955;SDS011;23776;51.592;7.180;2022-08-03T09:14:37;4.55;;;1.65;;
37955;SDS011;23776;51.592;7.180;2022-08-03T09:17:03;8.15;;;2.08;;
37955;SDS011;23776;51.592;7.180;2022-08-03T09:19:30;6.20;;;2.63;;
37955;SDS011;23776;51.592;7.180;2022-08-03T09:22:06;4.85;;;2.03;;
37955;SDS011;23776;51.592;7.180;2022-08-03T09:24:55;6.20;;;2.70;;
37955;SDS011;23776;51.592;7.180;2022-08-03T09:27:25;3.22;;;2.25;;
37955;SDS011;23776;51.592;7.180;2022-08-03T09:29:53;3.63;;;1.90;;
37955;SDS011;23776;51.592;7.180;2022-08-03T09:32:23;4.53;;;2.00;;
37955;SDS011;23776;51.592;7.180;2022-08-03T09:34:49;11.25;;;2.10;;
37955;SDS011;23776;51.592;7.180;2022-08-03T09:37:17;4.05;;;2.08;;
37955;SDS011;23776;51.592;7.180;2022-08-03T09:39:44;6.00;;;2.10;;
37955;SDS011;23776;51.592;7.180;2022-08-03T09:42:12;4.40;;;2.33;;
37955;SDS011;23776;51.592;7.180;2022-08-03T09:44:40;6.03;;;2.10;;
37955;SDS011;23776;51.592;7.180;2022-08-03T09:47:08;3.90;;;2.17;;
37955;SDS011;23776;51.592;7.180;2022-08-03T09:49:35;4.63;;;1.88;;
37955;SDS011;23776;51.592;7.180;2022-08-03T09:52:10;6.40;;;2.22;;
37955;SDS011;23776;51.592;7.180;2022-08-03T09:54:42;10.82;;;2.42;;
37955;SDS011;23776;51.592;7.180;2022-08-03T09:57:18;4.80;;;2.40;;
37955;SDS011;23776;51.592;7.180;2022-08-03T09:59:49;5.47;;;1.83;;
37955;SDS011;23776;51.592;7.180;2022-08-03T10:02:23;10.52;;;2.38;;
37955;SDS011;23776;51.592;7.180;2022-08-03T10:04:51;3.17;;;1.70;;
37955;SDS011;23776;51.592;7.180;2022-08-03T10:07:21;6.63;;;2.47;;
37955;SDS011;23776;51.592;7.180;2022-08-03T10:09:58;4.70;;;2.10;;
37955;SDS011;23776;51.592;7.180;2022-08-03T10:12:25;5.90;;;1.92;;
37955;SDS011;23776;51.592;7.180;2022-08-03T10:14:51;7.10;;;2.10;;
37955;SDS011;23776;51.592;7.180;2022-08-03T10:17:18;9.07;;;2.63;;
37955;SDS011;23776;51.592;7.180;2022-08-03T10:19:45;6.50;;;2.08;;
37955;SDS011;23776;51.592;7.180;2022-08-03T10:22:12;3.67;;;2.05;;
37955;SDS011;23776;51.592;7.180;2022-08-03T10:24:52;6.38;;;2.13;;
37955;SDS011;23776;51.592;7.180;2022-08-03T10:27:39;4.18;;;2.08;;
37955;SDS011;23776;51.592;7.180;2022-08-03T10:30:09;5.47;;;2.47;;
37955;SDS011;23776;51.592;7.180;2022-08-03T10:35:18;3.40;;;1.90;;
37955;SDS011;23776;51.592;7.180;2022-08-03T10:37:51;3.97;;;1.90;;
37955;SDS011;23776;51.592;7.180;2022-08-03T10:40:23;5.35;;;2.28;;
37955;SDS011;23776;51.592;7.180;2022-08-03T10:42:53;7.45;;;2.25;;
37955;SDS011;23776;51.592;7.180;2022-08-03T10:45:24;12.70;;;1.73;;
37955;SDS011;23776;51.592;7.180;2022-08-03T10:47:51;9.38;;;2.20;;
37955;SDS011;23776;51.592;7.180;2022-08-03T10:50:20;5.97;;;1.98;;
37955;SDS011;23776;51.592;7.180;2022-08-03T10:52:58;9.13;;;2.65;;
37955;SDS011;23776;51.592;7.180;2022-08-03T10:55:34;5.68;;;1.80;;
37955;SDS011;23776;51.592;7.180;2022-08-03T11:01:09;4.72;;;1.88;;
37955;SDS011;23776;51.592;7.180;2022-08-03T11:04:21;6.00;;;2.00;;
37955;SDS011;23776;51.592;7.180;2022-08-03T11:06:24;11.00;;;2.15;;
37955;SDS011;23776;51.592;7.180;2022-08-03T11:11:41;9.10;;;2.95;;
37955;SDS011;23776;51.592;7.180;2022-08-03T11:14:12;6.97;;;2.65;;
37955;SDS011;23776;51.592;7.180;2022-08-03T11:16:44;6.80;;;2.25;;
37955;SDS011;23776;51.592;7.180;2022-08-03T11:19:17;11.18;;;2.90;;
37955;SDS011;23776;51.592;7.180;2022-08-03T11:27:18;10.20;;;2.35;;
37955;SDS011;23776;51.592;7.180;2022-08-03T11:40:43;10.80;;;2.40;;
37955;SDS011;23776;51.592;7.180;2022-08-03T11:46:06;9.00;;;2.55;;
37955;SDS011;23776;51.592;7.180;2022-08-03T11:48:42;6.45;;;1.85;;
37955;SDS011;23776;51.592;7.180;2022-08-03T11:51:26;5.10;;;2.10;;
37955;SDS011;23776;51.592;7.180;2022-08-03T11:56:23;2.72;;;1.90;;
37955;SDS011;23776;51.592;7.180;2022-08-03T11:58:50;6.72;;;2.03;;
37955;SDS011;23776;51.592;7.180;2022-08-03T12:01:20;6.28;;;1.70;;
37955;SDS011;23776;51.592;7.180;2022-08-03T12:03:47;7.78;;;1.92;;
37955;SDS011;23776;51.592;7.180;2022-08-03T12:06:14;6.05;;;1.80;;
37955;SDS011;23776;51.592;7.180;2022-08-03T12:08:41;13.40;;;2.22;;
37955;SDS011;23776;51.592;7.180;2022-08-03T12:11:09;4.10;;;1.50;;
37955;SDS011;23776;51.592;7.180;2022-08-03T12:16:02;5.75;;;1.73;;
37955;SDS011;23776;51.592;7.180;2022-08-03T12:18:28;2.42;;;1.10;;
37955;SDS011;23776;51.592;7.180;2022-08-03T12:21:02;5.32;;;1.90;;
37955;SDS011;23776;51.592;7.180;2022-08-03T12:23:33;8.30;;;1.92;;
37955;SDS011;23776;51.592;7.180;2022-08-03T12:26:03;6.30;;;1.67;;
37955;SDS011;23776;51.592;7.180;2022-08-03T12:28:30;6.03;;;1.77;;
37955;SDS011;23776;51.592;7.180;2022-08-03T12:30:59;3.90;;;1.60;;
37955;SDS011;23776;51.592;7.180;2022-08-03T12:33:30;5.82;;;1.40;;
37955;SDS011;23776;51.592;7.180;2022-08-03T12:36:08;3.35;;;1.55;;
37955;SDS011;23776;51.592;7.180;2022-08-03T12:38:35;7.88;;;1.73;;
37955;SDS011;23776;51.592;7.180;2022-08-03T12:41:06;5.07;;;2.13;;
37955;SDS011;23776;51.592;7.180;2022-08-03T12:43:35;2.58;;;1.38;;
37955;SDS011;23776;51.592;7.180;2022-08-03T12:49:05;2.50;;;1.20;;
37955;SDS011;23776;51.592;7.180;2022-08-03T12:51:35;4.80;;;1.20;;
37955;SDS011;23776;51.592;7.180;2022-08-03T12:54:20;4.07;;;1.30;;
37955;SDS011;23776;51.592;7.180;2022-08-03T12:56:57;3.03;;;1.20;;
37955;SDS011;23776;51.592;7.180;2022-08-03T12:59:25;6.35;;;1.17;;
37955;SDS011;23776;51.592;7.180;2022-08-03T13:01:52;2.97;;;1.35;;
37955;SDS011;23776;51.592;7.180;2022-08-03T13:04:24;2.83;;;1.25;;
37955;SDS011;23776;51.592;7.180;2022-08-03T13:07:02;7.18;;;1.50;;
37955;SDS011;23776;51.592;7.180;2022-08-03T13:09:42;4.47;;;1.45;;
37955;SDS011;23776;51.592;7.180;2022-08-03T13:12:13;3.83;;;1.70;;
37955;SDS011;23776;51.592;7.180;2022-08-03T13:14:44;3.78;;;1.08;;
37955;SDS011;23776;51.592;7.180;2022-08-03T13:17:11;3.70;;;1.77;;
37955;SDS011;23776;51.592;7.180;2022-08-03T13:19:38;2.78;;;1.15;;
37955;SDS011;23776;51.592;7.180;2022-08-03T13:24:40;3.53;;;1.30;;
37955;SDS011;23776;51.592;7.180;2022-08-03T13:27:06;2.85;;;1.50;;
37955;SDS011;23776;51.592;7.180;2022-08-03T13:29:33;3.80;;;1.25;;
37955;SDS011;23776;51.592;7.180;2022-08-03T13:31:59;2.53;;;1.63;;
37955;SDS011;23776;51.592;7.180;2022-08-03T13:34:25;6.13;;;1.40;;
37955;SDS011;23776;51.592;7.180;2022-08-03T13:36:51;3.63;;;1.20;;
37955;SDS011;23776;51.592;7.180;2022-08-03T13:39:17;4.22;;;1.33;;
37955;SDS011;23776;51.592;7.180;2022-08-03T13:41:43;5.05;;;1.50;;
37955;SDS011;23776;51.592;7.180;2022-08-03T13:44:09;3.45;;;1.15;;
37955;SDS011;23776;51.592;7.180;2022-08-03T13:46:35;2.15;;;1.88;;
37955;SDS011;23776;51.592;7.180;2022-08-03T13:49:01;5.18;;;1.38;;
37955;SDS011;23776;51.592;7.180;2022-08-03T13:51:26;2.00;;;1.20;;
37955;SDS011;23776;51.592;7.180;2022-08-03T13:53:52;8.05;;;2.38;;
37955;SDS011;23776;51.592;7.180;2022-08-03T13:56:17;5.15;;;1.60;;
37955;SDS011;23776;51.592;7.180;2022-08-03T13:58:43;3.28;;;1.35;;
37955;SDS011;23776;51.592;7.180;2022-08-03T14:01:09;5.68;;;1.55;;
37955;SDS011;23776;51.592;7.180;2022-08-03T14:03:35;4.68;;;2.03;;
37955;SDS011;23776;51.592;7.180;2022-08-03T14:06:01;3.80;;;1.15;;
37955;SDS011;23776;51.592;7.180;2022-08-03T14:08:26;5.22;;;1.42;;
37955;SDS011;23776;51.592;7.180;2022-08-03T14:10:52;3.75;;;1.33;;
37955;SDS011;23776;51.592;7.180;2022-08-03T14:13:17;7.75;;;1.80;;
37955;SDS011;23776;51.592;7.180;2022-08-03T14:15:43;7.13;;;1.95;;
37955;SDS011;23776;51.592;7.180;2022-08-03T14:18:10;5.32;;;1.33;;
37955;SDS011;23776;51.592;7.180;2022-08-03T14:20:36;7.50;;;1.27;;
37955;SDS011;23776;51.592;7.180;2022-08-03T14:23:02;3.75;;;1.85;;
37955;SDS011;23776;51.592;7.180;2022-08-03T14:25:28;8.80;;;1.83;;
37955;SDS011;23776;51.592;7.180;2022-08-03T14:27:54;5.05;;;1.50;;
37955;SDS011;23776;51.592;7.180;2022-08-03T14:30:20;5.32;;;1.83;;
37955;SDS011;23776;51.592;7.180;2022-08-03T14:32:45;2.83;;;1.58;;
37955;SDS011;23776;51.592;7.180;2022-08-03T14:35:11;8.25;;;1.92;;
37955;SDS011;23776;51.592;7.180;2022-08-03T14:37:37;7.45;;;1.60;;
37955;SDS011;23776;51.592;7.180;2022-08-03T14:40:03;4.20;;;1.25;;
37955;SDS011;23776;51.592;7.180;2022-08-03T14:42:29;6.90;;;1.67;;
37955;SDS011;23776;51.592;7.180;2022-08-03T14:44:55;9.23;;;1.65;;
37955;SDS011;23776;51.592;7.180;2022-08-03T14:47:20;4.88;;;1.48;;
37955;SDS011;23776;51.592;7.180;2022-08-03T14:49:46;3.53;;;1.70;;
37955;SDS011;23776;51.592;7.180;2022-08-03T14:52:11;4.70;;;1.55;;
37955;SDS011;23776;51.592;7.180;2022-08-03T14:54:37;2.60;;;1.30;;
37955;SDS011;23776;51.592;7.180;2022-08-03T14:57:03;6.07;;;1.80;;
37955;SDS011;23776;51.592;7.180;2022-08-03T14:59:28;10.57;;;2.10;;
37955;SDS011;23776;51.592;7.180;2022-08-03T15:01:55;4.05;;;1.73;;
37955;SDS011;23776;51.592;7.180;2022-08-03T15:04:20;5.03;;;1.45;;
37955;SDS011;23776;51.592;7.180;2022-08-03T15:06:46;7.63;;;1.45;;
37955;SDS011;23776;51.592;7.180;2022-08-03T15:09:12;3.50;;;1.58;;
37955;SDS011;23776;51.592;7.180;2022-08-03T15:11:37;7.63;;;1.67;;
37955;SDS011;23776;51.592;7.180;2022-08-03T15:14:03;4.32;;;1.45;;
37955;SDS011;23776;51.592;7.180;2022-08-03T15:16:28;2.75;;;1.23;;
37955;SDS011;23776;51.592;7.180;2022-08-03T15:18:54;4.97;;;1.67;;
37955;SDS011;23776;51.592;7.180;2022-08-03T15:21:20;3.42;;;1.50;;
37955;SDS011;23776;51.592;7.180;2022-08-03T15:23:45;2.38;;;1.02;;
37955;SDS011;23776;51.592;7.180;2022-08-03T15:26:11;8.05;;;2.40;;
37955;SDS011;23776;51.592;7.180;2022-08-03T15:28:36;5.40;;;1.52;;
37955;SDS011;23776;51.592;7.180;2022-08-03T15:31:02;4.25;;;1.70;;
37955;SDS011;23776;51.592;7.180;2022-08-03T15:33:29;3.40;;;1.48;;
37955;SDS011;23776;51.592;7.180;2022-08-03T15:35:55;5.07;;;2.10;;
37955;SDS011;23776;51.592;7.180;2022-08-03T15:38:20;2.03;;;1.33;;